createdAt,value
2023-02-14T00:00:07.086Z,56.42
2023-02-14T00:02:38.741Z,53.20
2023-02-14T00:05:08.165Z,75.90
2023-02-14T00:07:36.957Z,55.05
2023-02-14T00:10:06.684Z,55.97
2023-02-14T00:12:35.524Z,61.22
2023-02-14T00:15:21.811Z,45.20
2023-02-14T00:17:53.105Z,49.45
2023-02-14T00:20:22.426Z,35.75
2023-02-14T00:22:51.350Z,41.03
2023-02-14T00:25:20.236Z,48.83
2023-02-14T00:27:49.100Z,58.03
2023-02-14T00:30:18.259Z,42.03
2023-02-14T00:32:47.257Z,54.30
2023-02-14T00:35:17.661Z,41.45
2023-02-14T00:37:47.852Z,51.03
2023-02-14T00:40:16.732Z,41.10
2023-02-14T00:42:45.570Z,61.00
2023-02-14T00:45:19.045Z,42.53
2023-02-14T00:47:47.965Z,50.78
2023-02-14T00:50:18.472Z,57.80
2023-02-14T00:52:47.311Z,51.33
2023-02-14T00:55:16.225Z,55.67
2023-02-14T00:57:45.132Z,42.45
2023-02-14T01:00:15.234Z,47.75
2023-02-14T01:02:44.107Z,52.25
2023-02-14T01:05:13.044Z,55.55
2023-02-14T01:07:43.338Z,42.20
2023-02-14T01:10:12.858Z,45.65
2023-02-14T01:12:41.776Z,35.47
2023-02-14T01:15:11.148Z,48.30
2023-02-14T01:17:39.944Z,43.35
2023-02-14T01:20:10.398Z,42.08
2023-02-14T01:22:39.940Z,51.33
2023-02-14T01:25:10.308Z,36.40
2023-02-14T01:27:39.177Z,36.45
2023-02-14T01:30:09.494Z,55.30
2023-02-14T01:32:38.370Z,47.85
2023-02-14T01:35:07.694Z,55.97
2023-02-14T01:37:37.212Z,48.03
2023-02-14T01:40:08.289Z,64.00
2023-02-14T01:42:38.773Z,36.75
2023-02-14T01:45:15.861Z,41.53
2023-02-14T01:47:47.935Z,54.47
2023-02-14T01:50:23.633Z,48.67
2023-02-14T01:52:56.350Z,47.17
2023-02-14T01:55:29.087Z,66.35
2023-02-14T01:58:03.209Z,48.60
2023-02-14T02:00:49.260Z,36.08
2023-02-14T02:03:20.560Z,26.80
2023-02-14T02:05:52.827Z,49.80
2023-02-14T02:08:21.789Z,42.65
2023-02-14T02:10:50.773Z,39.70
2023-02-14T02:13:23.891Z,35.95
2023-02-14T02:16:27.498Z,40.33
2023-02-14T02:19:09.937Z,40.03
2023-02-14T02:22:14.225Z,27.77
2023-02-14T02:24:52.324Z,44.88
2023-02-14T02:27:33.090Z,28.10
2023-02-14T02:30:50.115Z,28.23
2023-02-14T02:34:04.700Z,22.02
2023-02-14T02:36:48.923Z,44.80
2023-02-14T02:39:31.145Z,35.37
2023-02-14T02:42:08.085Z,34.38
2023-02-14T02:44:50.780Z,25.35
2023-02-14T02:47:28.770Z,44.00
2023-02-14T02:50:22.661Z,40.05
2023-02-14T02:53:06.507Z,35.75
2023-02-14T02:56:03.439Z,26.73
2023-02-14T02:58:37.346Z,18.80
2023-02-14T03:01:11.442Z,29.02
2023-02-14T03:04:00.078Z,21.50
2023-02-14T03:06:31.385Z,52.90
2023-02-14T03:09:14.640Z,38.38
2023-02-14T03:11:57.373Z,23.20
2023-02-14T03:14:32.071Z,27.08
2023-02-14T03:20:14.327Z,26.55
2023-02-14T03:22:51.547Z,31.52
2023-02-14T03:25:32.508Z,39.83
2023-02-14T03:28:12.260Z,31.05
2023-02-14T03:30:51.470Z,31.67
2023-02-14T03:33:29.050Z,24.65
2023-02-14T03:36:03.330Z,43.30
2023-02-14T03:41:10.425Z,22.77
2023-02-14T03:43:45.347Z,33.35
2023-02-14T03:46:19.275Z,15.93
2023-02-14T03:48:50.989Z,33.85
2023-02-14T03:51:22.399Z,21.77
2023-02-14T03:53:55.023Z,23.70
2023-02-14T03:56:30.995Z,26.30
2023-02-14T03:59:06.350Z,30.63
2023-02-14T04:01:40.309Z,14.65
2023-02-14T04:04:10.831Z,14.07
2023-02-14T04:06:39.730Z,21.88
2023-02-14T04:09:08.586Z,34.13
2023-02-14T04:11:38.913Z,20.85
2023-02-14T04:14:07.899Z,14.18
2023-02-14T04:16:56.879Z,16.33
2023-02-14T04:19:24.700Z,18.17
2023-02-14T04:21:54.285Z,16.75
2023-02-14T04:24:23.080Z,14.68
2023-02-14T04:27:12.324Z,22.73
2023-02-14T04:29:44.811Z,22.90
2023-02-14T04:32:16.315Z,13.68
2023-02-14T04:34:45.271Z,24.08
2023-02-14T04:37:15.286Z,17.42
2023-02-14T04:39:44.081Z,14.30
2023-02-14T04:42:14.279Z,17.85
2023-02-14T04:44:43.287Z,34.55
2023-02-14T04:47:12.158Z,17.98
2023-02-14T04:49:41.185Z,22.05
2023-02-14T04:52:10.131Z,17.05
2023-02-14T04:54:39.039Z,27.02
2023-02-14T04:57:07.815Z,41.47
2023-02-14T04:59:38.048Z,37.22
2023-02-14T05:02:07.043Z,39.60
2023-02-14T05:04:36.071Z,42.85
2023-02-14T05:07:05.062Z,49.72
2023-02-14T05:09:33.964Z,50.25
2023-02-14T05:12:03.241Z,29.30
2023-02-14T05:14:32.151Z,52.33
2023-02-14T05:17:02.493Z,41.22
2023-02-14T05:19:31.396Z,44.33
2023-02-14T05:22:00.186Z,35.55
2023-02-14T05:24:30.039Z,41.15
2023-02-14T05:26:58.821Z,29.77
2023-02-14T05:29:27.914Z,32.80
2023-02-14T05:31:56.748Z,44.28
2023-02-14T05:34:27.059Z,56.28
2023-02-14T05:36:56.147Z,39.50
2023-02-14T05:39:25.008Z,68.45
2023-02-14T05:41:53.811Z,60.67
2023-02-14T05:44:22.750Z,53.63
2023-02-14T05:46:51.639Z,47.03
2023-02-14T05:49:20.553Z,50.63
2023-02-14T05:51:51.087Z,67.70
2023-02-14T05:54:19.895Z,53.92
2023-02-14T05:56:48.687Z,57.67
2023-02-14T05:59:17.688Z,53.83
2023-02-14T06:01:46.524Z,72.40
2023-02-14T06:04:15.367Z,60.38
2023-02-14T06:06:44.259Z,66.95
2023-02-14T06:09:14.969Z,42.28
2023-02-14T06:11:43.826Z,65.80
2023-02-14T06:14:12.661Z,76.30
2023-02-14T06:16:41.544Z,84.97
2023-02-14T06:19:10.403Z,73.45
2023-02-14T06:21:39.251Z,84.47
2023-02-14T06:24:08.286Z,69.03
2023-02-14T06:26:38.451Z,69.03
2023-02-14T06:29:07.543Z,67.38
2023-02-14T06:31:37.159Z,49.90
2023-02-14T06:34:06.009Z,78.63
2023-02-14T06:36:34.943Z,64.60
2023-02-14T06:39:03.891Z,140.32
2023-02-14T06:41:32.733Z,141.15
2023-02-14T06:44:03.252Z,135.68
2023-02-14T06:46:32.116Z,178.07
2023-02-14T06:49:00.972Z,99.43
2023-02-14T06:51:29.905Z,112.75
2023-02-14T06:53:58.775Z,93.82
2023-02-14T06:56:27.715Z,109.30
2023-02-14T06:58:56.544Z,81.55
2023-02-14T07:01:26.813Z,60.63
2023-02-14T07:03:55.638Z,48.70
2023-02-14T07:06:24.454Z,46.17
2023-02-14T07:08:53.268Z,37.13
2023-02-14T07:11:22.048Z,48.67
2023-02-14T07:13:50.943Z,41.17
2023-02-14T07:16:19.795Z,48.20
2023-02-14T07:18:50.350Z,32.50
2023-02-14T07:21:19.232Z,24.05
2023-02-14T07:23:50.073Z,30.92
2023-02-14T07:26:19.508Z,39.05
2023-02-14T07:28:49.911Z,35.45
2023-02-14T07:31:19.969Z,28.80
2023-02-14T07:33:50.554Z,22.17
2023-02-14T07:36:20.404Z,36.97
2023-02-14T07:38:49.311Z,20.13
2023-02-14T07:41:18.183Z,26.88
2023-02-14T07:43:47.069Z,25.83
2023-02-14T07:46:17.558Z,25.08
2023-02-14T07:48:46.520Z,23.73
2023-02-14T07:51:16.779Z,33.72
2023-02-14T07:53:45.624Z,28.17
2023-02-14T07:56:14.472Z,21.77
2023-02-14T07:58:43.358Z,33.10
2023-02-14T08:01:12.145Z,34.53
2023-02-14T08:03:41.013Z,27.50
2023-02-14T08:06:09.979Z,30.98
2023-02-14T08:08:40.207Z,24.65
2023-02-14T08:11:09.203Z,27.70
2023-02-14T08:13:38.064Z,36.70
2023-02-14T08:16:07.685Z,25.00
2023-02-14T08:18:39.233Z,25.60
2023-02-14T08:21:10.598Z,22.90
2023-02-14T08:23:40.758Z,19.77
2023-02-14T08:26:09.700Z,17.17
2023-02-14T08:28:38.723Z,14.40
2023-02-14T08:31:07.991Z,17.30
2023-02-14T08:33:36.906Z,16.42
2023-02-14T08:36:06.480Z,13.07
2023-02-14T08:38:35.366Z,19.38
2023-02-14T08:41:08.604Z,17.33
2023-02-14T08:43:38.175Z,13.05
2023-02-14T08:46:07.062Z,18.10
2023-02-14T08:48:39.380Z,14.75
2023-02-14T08:51:08.856Z,9.65
2023-02-14T08:53:38.224Z,10.63
2023-02-14T08:56:11.023Z,11.70
2023-02-14T08:58:40.505Z,12.23
2023-02-14T09:01:10.172Z,14.82
2023-02-14T09:03:39.612Z,9.63
2023-02-14T09:06:10.121Z,19.42
2023-02-14T09:08:40.616Z,11.73
2023-02-14T09:11:12.814Z,8.38
2023-02-14T09:13:41.979Z,7.20
2023-02-14T09:16:13.027Z,9.68
2023-02-14T09:18:41.968Z,7.35
2023-02-14T09:21:14.730Z,8.48
2023-02-14T09:23:43.912Z,10.13
2023-02-14T09:26:16.236Z,12.77
2023-02-14T09:28:45.717Z,9.25
2023-02-14T09:31:16.477Z,10.90
2023-02-14T09:33:46.617Z,10.73
2023-02-14T09:36:32.634Z,14.57
2023-02-14T09:39:02.099Z,9.63
2023-02-14T09:42:09.665Z,10.43
2023-02-14T09:44:41.183Z,9.77
2023-02-14T09:47:18.675Z,11.88
2023-02-14T09:49:48.949Z,9.40
2023-02-14T09:52:20.851Z,9.55
2023-02-14T09:54:55.488Z,9.52
2023-02-14T09:57:35.834Z,15.02
2023-02-14T10:00:16.290Z,12.00
2023-02-14T10:02:57.113Z,11.20
2023-02-14T10:05:29.678Z,11.60
2023-02-14T10:08:06.062Z,10.45
2023-02-14T10:10:40.032Z,9.63
2023-02-14T10:13:18.018Z,8.10
2023-02-14T10:15:49.770Z,10.60
2023-02-14T10:18:23.354Z,10.52
2023-02-14T10:20:55.492Z,7.65
2023-02-14T10:23:31.586Z,9.73
2023-02-14T10:26:03.379Z,11.75
2023-02-14T10:28:36.134Z,13.95
2023-02-14T10:31:22.645Z,9.27
2023-02-14T10:33:57.679Z,14.48
2023-02-14T10:36:41.455Z,8.98
2023-02-14T10:39:33.475Z,10.63
2023-02-14T10:42:12.702Z,13.25
2023-02-14T10:44:49.275Z,11.85
2023-02-14T10:47:32.704Z,11.85
2023-02-14T10:50:12.208Z,8.65
2023-02-14T10:52:49.846Z,21.05
2023-02-14T10:55:32.322Z,11.45
2023-02-14T10:58:07.382Z,8.68
2023-02-14T11:00:42.313Z,12.27
2023-02-14T11:03:15.276Z,11.85
2023-02-14T11:05:47.028Z,22.38
2023-02-14T11:08:20.202Z,18.40
2023-02-14T11:10:49.620Z,14.60
2023-02-14T11:13:29.595Z,20.35
2023-02-14T11:16:03.529Z,10.43
2023-02-14T11:18:35.983Z,10.05
2023-02-14T11:21:08.193Z,16.27
2023-02-14T11:23:39.481Z,13.65
2023-02-14T11:26:15.362Z,7.82
2023-02-14T11:28:52.602Z,10.55
2023-02-14T11:31:32.146Z,10.93
2023-02-14T11:34:05.055Z,18.48
2023-02-14T11:36:42.185Z,18.75
2023-02-14T11:39:24.530Z,13.30
2023-02-14T11:41:55.572Z,16.98
2023-02-14T11:44:27.070Z,17.27
2023-02-14T11:46:59.103Z,20.63
2023-02-14T11:49:33.475Z,19.67
2023-02-14T11:52:10.583Z,13.73
2023-02-14T11:54:41.328Z,14.77
2023-02-14T11:57:14.889Z,17.77
2023-02-14T11:59:46.451Z,14.82
2023-02-14T12:02:33.082Z,10.50
2023-02-14T12:05:05.256Z,14.88
2023-02-14T12:07:37.495Z,14.43
2023-02-14T12:10:17.044Z,16.63
2023-02-14T12:13:01.168Z,15.48
2023-02-14T12:15:38.020Z,15.00
2023-02-14T12:18:36.933Z,14.52
2023-02-14T12:21:18.592Z,18.50
2023-02-14T12:23:56.411Z,14.32
2023-02-14T12:26:29.922Z,18.50
2023-02-14T12:29:06.989Z,21.65
2023-02-14T12:31:35.995Z,16.95
2023-02-14T12:34:06.383Z,16.17
2023-02-14T12:37:08.131Z,17.13
2023-02-14T12:39:44.334Z,14.63
2023-02-14T12:42:30.037Z,25.85
2023-02-14T12:47:45.402Z,19.13
2023-02-14T12:50:39.103Z,19.83
2023-02-14T12:53:30.537Z,20.83
2023-02-14T12:56:11.905Z,16.77
2023-02-14T12:58:55.100Z,13.35
2023-02-14T13:01:42.731Z,18.60
2023-02-14T13:04:29.978Z,13.85
2023-02-14T13:07:06.882Z,19.80
2023-02-14T13:09:42.239Z,17.42
2023-02-14T13:12:31.048Z,16.55
2023-02-14T13:15:12.955Z,14.82
2023-02-14T13:17:48.260Z,19.33
2023-02-14T13:20:43.670Z,17.77
2023-02-14T13:23:19.397Z,18.02
2023-02-14T13:25:53.094Z,15.60
2023-02-14T13:28:23.194Z,8.68
2023-02-14T13:30:52.466Z,19.98
2023-02-14T13:33:34.068Z,14.18
2023-02-14T13:36:08.834Z,19.98
2023-02-14T13:38:45.016Z,14.65
2023-02-14T13:41:16.557Z,16.38
2023-02-14T13:43:50.530Z,12.23
2023-02-14T13:46:22.319Z,13.80
2023-02-14T13:49:02.156Z,13.80
2023-02-14T13:51:48.547Z,15.70
2023-02-14T13:54:34.745Z,12.70
2023-02-14T13:57:25.527Z,14.20
2023-02-14T14:00:33.044Z,15.75
2023-02-14T14:03:02.047Z,19.40
2023-02-14T14:06:01.226Z,24.30
2023-02-14T14:08:45.599Z,14.88
2023-02-14T14:11:49.778Z,15.43
2023-02-14T14:14:39.985Z,14.88
2023-02-14T14:17:25.971Z,15.07
2023-02-14T14:19:55.203Z,11.43
2023-02-14T14:22:24.151Z,13.27
2023-02-14T14:24:59.502Z,15.07
2023-02-14T14:27:33.164Z,17.77
2023-02-14T14:30:06.164Z,13.20
2023-02-14T14:32:36.756Z,17.60
2023-02-14T14:35:08.313Z,14.40
2023-02-14T14:37:46.439Z,8.32
2023-02-14T14:40:24.990Z,11.77
2023-02-14T14:42:55.434Z,7.28
2023-02-14T14:45:28.241Z,9.55
2023-02-14T14:47:59.361Z,18.70
2023-02-14T14:50:30.256Z,10.15
2023-02-14T14:53:02.916Z,9.88
2023-02-14T14:55:35.418Z,9.35
2023-02-14T14:58:06.835Z,8.77
2023-02-14T15:00:38.724Z,16.58
2023-02-14T15:03:15.856Z,4.97
2023-02-14T15:05:47.050Z,8.45
2023-02-14T15:08:17.788Z,10.35
2023-02-14T15:10:50.953Z,8.52
2023-02-14T15:13:37.428Z,8.55
2023-02-14T15:16:08.756Z,9.63
2023-02-14T15:18:37.600Z,8.13
2023-02-14T15:21:07.517Z,9.30
2023-02-14T15:23:36.558Z,10.38
2023-02-14T15:26:05.436Z,13.27
2023-02-14T15:28:35.920Z,8.73
2023-02-14T15:31:08.090Z,8.43
2023-02-14T15:33:37.574Z,19.92
2023-02-14T15:36:15.551Z,18.95
2023-02-14T15:38:44.475Z,14.90
2023-02-14T15:41:15.127Z,8.63
2023-02-14T15:43:44.376Z,6.22
2023-02-14T15:46:27.239Z,33.15
2023-02-14T15:49:00.825Z,17.15
2023-02-14T15:51:32.790Z,24.17
2023-02-14T15:54:04.678Z,14.43
2023-02-14T15:56:38.098Z,17.02
2023-02-14T15:59:09.023Z,21.10
2023-02-14T16:01:40.295Z,15.32
2023-02-14T16:04:09.196Z,18.67
2023-02-14T16:06:40.032Z,19.35
2023-02-14T16:09:25.949Z,21.85
2023-02-14T16:11:54.986Z,17.40
2023-02-14T16:14:32.614Z,15.70
2023-02-14T16:17:04.600Z,10.40
2023-02-14T16:19:39.415Z,13.40
2023-02-14T16:22:10.265Z,11.43
2023-02-14T16:24:39.098Z,11.40
2023-02-14T16:27:13.334Z,14.00
2023-02-14T16:29:42.177Z,10.40
2023-02-14T16:32:16.629Z,7.25
2023-02-14T16:34:48.265Z,9.48
2023-02-14T16:37:23.622Z,11.52
2023-02-14T16:39:56.606Z,15.55
2023-02-14T16:42:25.921Z,10.57
2023-02-14T16:44:54.827Z,14.90
2023-02-14T16:47:27.861Z,10.20
2023-02-14T16:49:56.804Z,11.65
2023-02-14T16:52:30.640Z,10.25
2023-02-14T16:54:59.461Z,10.40
2023-02-14T16:57:32.030Z,14.77
2023-02-14T17:00:00.868Z,7.07
2023-02-14T17:02:31.099Z,11.30
2023-02-14T17:05:00.027Z,9.13
2023-02-14T17:07:32.003Z,10.93
2023-02-14T17:10:04.690Z,11.07
2023-02-14T17:12:38.067Z,15.32
2023-02-14T17:15:11.864Z,8.40
2023-02-14T17:17:43.237Z,13.00
2023-02-14T17:20:13.937Z,15.65
2023-02-14T17:22:43.334Z,10.05
2023-02-14T17:25:12.476Z,10.77
2023-02-14T17:27:43.991Z,9.90
2023-02-14T17:30:14.418Z,15.43
2023-02-14T17:32:45.058Z,13.65
2023-02-14T17:35:14.574Z,14.43
2023-02-14T17:37:43.741Z,9.80
2023-02-14T17:40:14.594Z,14.07
2023-02-14T17:42:43.532Z,9.23
2023-02-14T17:45:12.902Z,12.63
2023-02-14T17:47:43.437Z,11.45
2023-02-14T17:50:14.760Z,12.55
2023-02-14T17:52:43.857Z,11.60
2023-02-14T17:55:15.752Z,12.10
2023-02-14T17:57:44.601Z,8.13
2023-02-14T18:00:16.340Z,7.78
2023-02-14T18:02:45.242Z,14.13
2023-02-14T18:05:15.542Z,16.52
2023-02-14T18:07:44.446Z,14.07
2023-02-14T18:10:13.371Z,13.90
2023-02-14T18:12:42.356Z,11.45
2023-02-14T18:15:11.463Z,7.40
2023-02-14T18:17:40.322Z,9.05
2023-02-14T18:20:10.107Z,10.05
2023-02-14T18:22:40.296Z,15.93
2023-02-14T18:25:09.412Z,8.00
2023-02-14T18:27:39.408Z,10.32
2023-02-14T18:30:09.663Z,12.73
2023-02-14T18:32:38.523Z,15.40
2023-02-14T18:35:08.931Z,11.60
2023-02-14T18:37:37.750Z,10.98
2023-02-14T18:40:11.118Z,13.13
2023-02-14T18:42:40.029Z,12.80
2023-02-14T18:45:10.164Z,14.48
2023-02-14T18:47:38.952Z,19.33
2023-02-14T18:50:09.224Z,21.35
2023-02-14T18:52:38.235Z,12.88
2023-02-14T18:55:09.058Z,10.27
2023-02-14T18:57:38.210Z,13.63
2023-02-14T19:00:12.069Z,12.38
2023-02-14T19:02:40.900Z,12.25
2023-02-14T19:05:10.897Z,17.33
2023-02-14T19:07:42.798Z,10.68
2023-02-14T19:10:13.392Z,21.55
2023-02-14T19:12:42.252Z,10.85
2023-02-14T19:15:11.386Z,13.68
2023-02-14T19:17:40.234Z,15.10
2023-02-14T19:20:09.918Z,16.55
2023-02-14T19:22:39.497Z,13.93
2023-02-14T19:25:12.439Z,12.18
2023-02-14T19:27:43.040Z,14.93
2023-02-14T19:30:12.431Z,5.55
2023-02-14T19:32:41.249Z,8.20
2023-02-14T19:35:10.101Z,12.77
2023-02-14T19:37:38.933Z,16.45
2023-02-14T19:40:10.399Z,14.38
2023-02-14T19:42:40.594Z,12.20
2023-02-14T19:45:10.154Z,8.35
2023-02-14T19:47:47.148Z,8.88
2023-02-14T19:50:17.705Z,9.40
2023-02-14T19:52:46.560Z,10.60
2023-02-14T19:55:23.192Z,14.70
2023-02-14T19:57:54.270Z,17.33
2023-02-14T20:00:23.533Z,19.33
2023-02-14T20:02:52.598Z,15.45
2023-02-14T20:05:24.970Z,10.95
2023-02-14T20:07:55.500Z,17.55
2023-02-14T20:10:24.305Z,9.93
2023-02-14T20:12:54.538Z,10.68
2023-02-14T20:15:23.353Z,9.80
2023-02-14T20:17:52.170Z,11.52
2023-02-14T20:20:21.821Z,12.40
2023-02-14T20:22:53.078Z,11.40
2023-02-14T20:25:21.894Z,10.32
2023-02-14T20:27:55.954Z,15.35
2023-02-14T20:30:24.760Z,9.90
2023-02-14T20:32:53.596Z,23.33
2023-02-14T20:35:22.446Z,14.38
2023-02-14T20:37:52.555Z,11.02
2023-02-14T20:40:21.428Z,17.33
2023-02-14T20:42:50.570Z,16.50
2023-02-14T20:45:21.159Z,13.82
2023-02-14T20:47:50.128Z,12.55
2023-02-14T20:50:19.169Z,19.15
2023-02-14T20:52:47.975Z,13.30
2023-02-14T20:55:16.896Z,7.70
2023-02-14T20:57:45.750Z,10.32
2023-02-14T21:00:15.254Z,11.55
2023-02-14T21:02:45.462Z,8.02
2023-02-14T21:05:18.464Z,9.40
2023-02-14T21:07:47.595Z,12.35
2023-02-14T21:10:16.842Z,12.98
2023-02-14T21:12:45.674Z,13.05
2023-02-14T21:15:14.975Z,13.10
2023-02-14T21:17:45.219Z,14.35
2023-02-14T21:20:15.096Z,14.35
2023-02-14T21:22:43.894Z,15.15
2023-02-14T21:25:12.685Z,21.92
2023-02-14T21:27:41.485Z,13.85
2023-02-14T21:30:11.163Z,15.95
2023-02-14T21:32:40.025Z,12.57
2023-02-14T21:35:10.460Z,11.18
2023-02-14T21:37:41.492Z,20.92
2023-02-14T21:40:10.752Z,25.98
2023-02-14T21:42:39.582Z,18.90
2023-02-14T21:45:26.666Z,17.30
2023-02-14T21:48:09.315Z,20.45
2023-02-14T21:50:39.582Z,32.90
2023-02-14T21:53:08.414Z,36.60
2023-02-14T21:55:38.524Z,43.08
2023-02-14T21:58:07.317Z,30.80
2023-02-14T22:00:36.176Z,26.02
2023-02-14T22:03:05.180Z,30.45
2023-02-14T22:05:34.086Z,25.88
2023-02-14T22:08:04.368Z,18.85
2023-02-14T22:10:33.206Z,17.40
2023-02-14T22:13:02.066Z,17.25
2023-02-14T22:15:30.925Z,20.00
2023-02-14T22:17:59.681Z,16.10
2023-02-14T22:20:28.607Z,17.73
2023-02-14T22:22:57.488Z,18.45
2023-02-14T22:25:28.000Z,28.83
2023-02-14T22:27:56.846Z,20.73
2023-02-14T22:30:25.828Z,26.80
2023-02-14T22:32:54.604Z,30.40
2023-02-14T22:35:23.454Z,40.75
2023-02-14T22:37:52.220Z,48.25
2023-02-14T22:40:21.259Z,42.50
2023-02-14T22:42:51.497Z,55.88
2023-02-14T22:45:20.366Z,43.83
2023-02-14T22:47:49.244Z,35.83
2023-02-14T22:50:18.286Z,39.25
2023-02-14T22:52:47.104Z,32.30
2023-02-14T22:55:16.254Z,23.52
2023-02-14T22:57:45.033Z,26.25
2023-02-14T23:00:15.991Z,27.42
2023-02-14T23:02:44.928Z,20.75
2023-02-14T23:05:13.857Z,24.13
2023-02-14T23:07:42.735Z,24.50
2023-02-14T23:10:12.110Z,14.48
2023-02-14T23:12:58.168Z,16.83
2023-02-14T23:15:50.989Z,20.58
2023-02-14T23:18:37.346Z,24.50
2023-02-14T23:21:31.232Z,20.75
2023-02-14T23:24:00.023Z,35.65
2023-02-14T23:26:28.961Z,40.67
2023-02-14T23:28:57.842Z,60.63
2023-02-14T23:31:28.168Z,27.63
2023-02-14T23:33:57.125Z,24.10
2023-02-14T23:36:25.953Z,19.20
2023-02-14T23:38:54.804Z,21.85
2023-02-14T23:41:41.295Z,31.83
2023-02-14T23:44:10.469Z,23.88
2023-02-14T23:46:40.664Z,33.33
2023-02-14T23:49:09.582Z,25.77
2023-02-14T23:51:38.647Z,24.20
2023-02-14T23:54:08.142Z,24.23
2023-02-14T23:56:37.954Z,23.88
2023-02-14T23:59:07.844Z,28.35
